createdAt,value
2022-09-15T00:01:09.565Z,84.6
2022-09-15T00:02:19.906Z,85.4
2022-09-15T00:03:29.798Z,84.7
2022-09-15T00:04:39.911Z,84.5
2022-09-15T00:05:50.031Z,84.3
2022-09-15T00:07:00.154Z,84.3
2022-09-15T00:08:10.257Z,84.5
2022-09-15T00:09:20.375Z,84.3
2022-09-15T00:10:30.499Z,84.3
2022-09-15T00:11:40.608Z,84.3
2022-09-15T00:12:49.758Z,84.5
2022-09-15T00:13:59.861Z,85.1
2022-09-15T00:15:09.989Z,84.3
2022-09-15T00:16:20.095Z,84.3
2022-09-15T00:17:30.225Z,84.4
2022-09-15T00:18:40.337Z,84.6
2022-09-15T00:19:50.449Z,84.3
2022-09-15T00:21:00.567Z,85
2022-09-15T00:22:10.696Z,85.1
2022-09-15T00:23:20.803Z,85.2
2022-09-15T00:24:30.928Z,84.9
2022-09-15T00:25:41.269Z,84.9
2022-09-15T00:26:51.164Z,85
2022-09-15T00:28:00.300Z,85.5
2022-09-15T00:29:10.406Z,85.8
2022-09-15T00:30:20.530Z,85.7
2022-09-15T00:31:30.652Z,85.9
2022-09-15T00:32:40.757Z,85.6
2022-09-15T00:33:50.876Z,85.8
2022-09-15T00:35:01.002Z,86
2022-09-15T00:36:11.105Z,86.1
2022-09-15T00:37:21.224Z,86.6
2022-09-15T00:39:41.461Z,86.5
2022-09-15T00:40:51.584Z,87
2022-09-15T00:42:01.703Z,86.7
2022-09-15T00:43:10.834Z,86.9
2022-09-15T00:44:20.962Z,87.6
2022-09-15T00:45:31.066Z,88.7
2022-09-15T00:46:41.417Z,88.3
2022-09-15T00:47:51.304Z,88.5
2022-09-15T00:49:01.423Z,88.8
2022-09-15T00:50:11.774Z,88.8
2022-09-15T00:51:21.654Z,89.1
2022-09-15T00:52:31.777Z,90
2022-09-15T00:53:41.902Z,90
2022-09-15T00:54:52.001Z,90.3
2022-09-15T00:56:02.134Z,90.5
2022-09-15T00:57:12.240Z,90.2
2022-09-15T00:58:21.371Z,89.9
2022-09-15T00:59:31.499Z,90.2
2022-09-15T01:00:41.611Z,89.9
2022-09-15T01:01:51.733Z,89.9
2022-09-15T01:03:01.854Z,89.2
2022-09-15T01:04:11.973Z,89.8
2022-09-15T01:05:22.089Z,89.6
2022-09-15T01:06:32.211Z,89.8
2022-09-15T01:07:42.312Z,89.5
2022-09-15T01:08:52.435Z,89.7
2022-09-15T01:10:02.557Z,89
2022-09-15T01:11:12.675Z,89.3
2022-09-15T01:12:22.784Z,88.9
2022-09-15T01:13:31.924Z,89
2022-09-15T01:14:42.050Z,89.3
2022-09-15T01:15:52.168Z,89.1
2022-09-15T01:17:02.275Z,88.9
2022-09-15T01:18:12.398Z,88.7
2022-09-15T01:19:22.505Z,89.4
2022-09-15T01:21:42.747Z,88.9
2022-09-15T01:22:52.870Z,89.1
2022-09-15T01:24:02.990Z,90
2022-09-15T01:25:13.094Z,88.9
2022-09-15T01:26:23.215Z,89.7
2022-09-15T01:27:33.340Z,89
2022-09-15T01:28:42.474Z,89.2
2022-09-15T01:29:52.819Z,89.1
2022-09-15T01:31:02.703Z,89
2022-09-15T01:32:12.813Z,89
2022-09-15T01:33:22.930Z,89.4
2022-09-15T01:35:43.176Z,89
2022-09-15T01:36:53.298Z,89.7
2022-09-15T01:38:03.403Z,89.7
2022-09-15T01:39:13.526Z,89.5
2022-09-15T01:40:23.638Z,89.4
2022-09-15T01:41:33.767Z,89.4
2022-09-15T01:42:43.871Z,89.5
2022-09-15T01:43:53.021Z,89.6
2022-09-15T01:45:03.127Z,89.3
2022-09-15T01:46:13.255Z,89.4
2022-09-15T01:47:23.593Z,89.3
2022-09-15T01:48:33.476Z,89.5
2022-09-15T01:49:43.599Z,89.3
2022-09-15T01:50:53.725Z,90.1
2022-09-15T01:52:03.833Z,90
2022-09-15T01:53:13.959Z,89.9
2022-09-15T01:54:24.062Z,90.2
2022-09-15T01:55:34.182Z,90.2
2022-09-15T01:56:44.308Z,90.5
2022-09-15T01:57:54.431Z,90.8
2022-09-15T01:59:03.552Z,90.4
2022-09-15T02:00:13.680Z,90.6
2022-09-15T02:01:23.801Z,91.1
2022-09-15T02:02:33.906Z,91
2022-09-15T02:03:44.032Z,91.3
2022-09-15T02:04:54.146Z,91.4
2022-09-15T02:06:04.267Z,91.7
2022-09-15T02:07:14.381Z,91.7
2022-09-15T02:08:24.488Z,91.8
2022-09-15T02:10:44.722Z,92.4
2022-09-15T02:11:54.843Z,92.3
2022-09-15T02:13:04.966Z,92.5
2022-09-15T02:14:14.107Z,92.5
2022-09-15T02:15:24.216Z,92.8
2022-09-15T02:17:44.449Z,93
2022-09-15T02:18:54.561Z,93.2
2022-09-15T02:20:04.694Z,93.1
2022-09-15T02:21:14.808Z,93.5
2022-09-15T02:22:24.914Z,93.7
2022-09-15T02:23:35.042Z,93.9
2022-09-15T02:24:45.168Z,93.7
2022-09-15T02:25:55.266Z,94
2022-09-15T02:27:05.626Z,94.1
2022-09-15T02:28:15.513Z,94.1
2022-09-15T02:29:24.646Z,94.3
2022-09-15T02:31:44.876Z,94.3
2022-09-15T02:32:54.015Z,94.6
2022-09-15T02:34:03.148Z,94.7
2022-09-15T02:35:13.276Z,94.7
2022-09-15T02:36:22.413Z,94.6
2022-09-15T02:37:32.532Z,95.1
2022-09-15T02:38:42.649Z,95.3
2022-09-15T02:39:52.769Z,95.4
2022-09-15T02:41:02.877Z,95.5
2022-09-15T02:42:13.008Z,95.5
2022-09-15T02:43:23.127Z,95.4
2022-09-15T02:44:33.233Z,95.4
2022-09-15T02:45:42.384Z,95.5
2022-09-15T02:46:51.506Z,95.6
2022-09-15T02:48:01.632Z,95.8
2022-09-15T02:49:11.000Z,96
2022-09-15T02:50:21.873Z,95.9
2022-09-15T02:51:31.976Z,95.9
2022-09-15T02:52:42.103Z,96.1
2022-09-15T02:53:52.224Z,96.2
2022-09-15T02:55:02.332Z,96.2
2022-09-15T02:56:12.453Z,96.2
2022-09-15T02:57:22.573Z,96.2
2022-09-15T02:58:32.682Z,96.1
2022-09-15T02:59:42.810Z,96.1
2022-09-15T03:00:52.929Z,96.2
2022-09-15T03:02:02.056Z,96.2
2022-09-15T03:03:12.181Z,96.2
2022-09-15T03:04:22.285Z,96
2022-09-15T03:05:32.418Z,96
2022-09-15T03:06:42.525Z,96
2022-09-15T03:07:52.638Z,95.8
2022-09-15T03:09:02.764Z,96.3
2022-09-15T03:10:12.872Z,96
2022-09-15T03:11:22.998Z,95.8
2022-09-15T03:12:33.125Z,95.5
2022-09-15T03:13:43.231Z,95.8
2022-09-15T03:14:53.342Z,95.5
2022-09-15T03:16:03.468Z,95.6
2022-09-15T03:17:12.611Z,95.4
2022-09-15T03:18:22.717Z,95.6
2022-09-15T03:19:32.843Z,95.5
2022-09-15T03:20:42.949Z,95.5
2022-09-15T03:21:53.072Z,95.4
2022-09-15T03:23:03.194Z,95.1
2022-09-15T03:24:13.312Z,95.3
2022-09-15T03:25:23.430Z,94.8
2022-09-15T03:27:43.661Z,94.2
2022-09-15T03:28:53.785Z,94
2022-09-15T03:30:03.903Z,94
2022-09-15T03:31:14.022Z,93.7
2022-09-15T03:32:23.158Z,93.8
2022-09-15T03:33:33.276Z,93.7
2022-09-15T03:34:43.380Z,93.8
2022-09-15T03:35:53.498Z,94.1
2022-09-15T03:37:03.625Z,93.5
2022-09-15T03:38:13.726Z,93.4
2022-09-15T03:39:23.848Z,93.1
2022-09-15T03:40:33.979Z,93.2
2022-09-15T03:41:44.082Z,92.7
2022-09-15T03:42:54.208Z,92.9
2022-09-15T03:44:04.330Z,92.1
2022-09-15T03:45:14.438Z,91.7
2022-09-15T03:46:24.562Z,91.8
2022-09-15T03:47:33.690Z,91.9
2022-09-15T03:48:43.810Z,91.5
2022-09-15T03:49:53.936Z,91.4
2022-09-15T03:51:04.039Z,91.5
2022-09-15T03:52:14.168Z,91.1
2022-09-15T03:53:24.286Z,91.3
2022-09-15T03:55:44.525Z,90.9
2022-09-15T03:56:54.626Z,91
2022-09-15T03:58:04.745Z,91
2022-09-15T03:59:14.876Z,91
2022-09-15T04:00:24.977Z,90.7
2022-09-15T04:01:35.105Z,90.4
2022-09-15T04:02:44.238Z,90.2
2022-09-15T04:03:54.581Z,90.3
2022-09-15T04:05:04.476Z,90.2
2022-09-15T04:06:14.581Z,89.5
2022-09-15T04:07:24.701Z,89.9
2022-09-15T04:08:34.829Z,89.7
2022-09-15T04:09:44.944Z,89.8
2022-09-15T04:10:55.061Z,89.8
2022-09-15T04:12:05.178Z,89.9
2022-09-15T04:13:15.302Z,90.3
2022-09-15T04:14:25.406Z,90.1
2022-09-15T04:15:35.533Z,89.7
2022-09-15T04:16:45.639Z,89
2022-09-15T04:17:54.780Z,88.4
2022-09-15T04:19:04.906Z,88.8
2022-09-15T04:20:15.017Z,88.3
2022-09-15T04:21:25.124Z,88
2022-09-15T04:23:45.375Z,87.9
2022-09-15T04:24:55.482Z,88.1
2022-09-15T04:26:05.603Z,87.6
2022-09-15T04:27:15.722Z,88
2022-09-15T04:28:25.834Z,87.2
2022-09-15T04:29:35.958Z,87.5
2022-09-15T04:30:46.083Z,86.8
2022-09-15T04:31:56.186Z,86.8
2022-09-15T04:33:05.325Z,86.8
2022-09-15T04:34:15.451Z,86.7
2022-09-15T04:35:25.570Z,87.1
2022-09-15T04:36:35.675Z,86.1
2022-09-15T04:37:45.797Z,85.9
2022-09-15T04:38:55.903Z,86.1
2022-09-15T04:40:06.025Z,85.9
2022-09-15T04:41:16.147Z,86.2
2022-09-15T04:42:26.266Z,85.8
2022-09-15T04:43:36.391Z,85.6
2022-09-15T04:44:46.495Z,86.2
2022-09-15T04:45:56.622Z,86.6
2022-09-15T04:47:06.744Z,86.2
2022-09-15T04:48:15.862Z,86.3
2022-09-15T04:49:25.985Z,86
2022-09-15T04:50:36.112Z,86.4
2022-09-15T04:51:46.216Z,85.3
2022-09-15T04:52:56.561Z,85.4
2022-09-15T04:54:06.465Z,85.7
2022-09-15T04:55:16.583Z,85
2022-09-15T04:56:26.692Z,84.7
2022-09-15T04:57:36.800Z,84.7
2022-09-15T04:58:46.926Z,84.6
2022-09-15T04:59:57.049Z,85.9
2022-09-15T05:01:07.154Z,84.8
2022-09-15T05:02:17.282Z,84.5
2022-09-15T05:03:26.411Z,84.3
2022-09-15T05:04:36.541Z,84.2
2022-09-15T05:05:46.643Z,84.8
2022-09-15T05:06:56.770Z,84.4
2022-09-15T05:08:06.895Z,84.6
2022-09-15T05:09:16.999Z,84.7
2022-09-15T05:10:27.119Z,84.3
2022-09-15T05:11:37.236Z,85
2022-09-15T05:12:47.358Z,84.7
2022-09-15T05:13:57.480Z,84.2
2022-09-15T05:15:07.582Z,84.9
2022-09-15T05:16:17.711Z,85.1
2022-09-15T05:17:27.825Z,85.6
2022-09-15T05:18:36.965Z,85
2022-09-15T05:19:47.069Z,84.5
2022-09-15T05:20:57.189Z,84.3
2022-09-15T05:22:07.320Z,83.8
2022-09-15T05:23:17.438Z,83.4
2022-09-15T05:24:27.541Z,83.1
2022-09-15T05:25:37.667Z,83.4
2022-09-15T05:26:47.791Z,83.2
2022-09-15T05:29:08.018Z,83.2
2022-09-15T05:30:18.136Z,82.9
2022-09-15T05:31:28.255Z,82.9
2022-09-15T05:32:38.378Z,83.5
2022-09-15T05:33:47.513Z,82.7
2022-09-15T05:34:57.616Z,82.4
2022-09-15T05:36:07.745Z,82.7
2022-09-15T05:37:17.851Z,82.7
2022-09-15T05:38:27.978Z,82.8
2022-09-15T05:39:38.091Z,83.6
2022-09-15T05:40:48.218Z,83.8
2022-09-15T05:41:58.326Z,84.9
2022-09-15T05:43:08.446Z,85.8
2022-09-15T05:44:18.559Z,86.2
2022-09-15T05:45:28.676Z,86
2022-09-15T05:46:38.800Z,85.7
2022-09-15T05:47:48.922Z,85.7
2022-09-15T05:48:58.058Z,85.8
2022-09-15T05:50:08.166Z,85.6
2022-09-15T05:51:18.275Z,85.3
2022-09-15T05:52:28.397Z,85.6
2022-09-15T05:53:38.524Z,84.7
2022-09-15T05:54:48.644Z,84.8
2022-09-15T05:55:58.760Z,84.5
2022-09-15T05:57:08.868Z,85.3
2022-09-15T05:58:18.986Z,84.7
2022-09-15T05:59:29.108Z,85.5
2022-09-15T06:00:39.228Z,85
2022-09-15T06:01:49.335Z,84.7
2022-09-15T06:02:59.450Z,85.7
2022-09-15T06:04:08.588Z,84.9
2022-09-15T06:05:18.708Z,85.7
2022-09-15T06:06:28.828Z,85.5
2022-09-15T06:07:38.954Z,85.3
2022-09-15T06:08:49.071Z,85.3
2022-09-15T06:09:59.171Z,85.3
2022-09-15T06:11:09.292Z,85.5
2022-09-15T06:12:19.412Z,86.4
2022-09-15T06:13:29.525Z,86.4
2022-09-15T06:14:39.652Z,85.7
2022-09-15T06:15:49.765Z,86
2022-09-15T06:16:59.877Z,85.9
2022-09-15T06:18:09.996Z,85.7
2022-09-15T06:19:19.133Z,85.7
2022-09-15T06:20:29.258Z,84.9
2022-09-15T06:21:39.381Z,85.5
2022-09-15T06:22:49.485Z,84
2022-09-15T06:23:59.608Z,83.4
2022-09-15T06:25:09.734Z,83.1
2022-09-15T06:26:19.844Z,84
2022-09-15T06:27:29.969Z,82.3
2022-09-15T06:28:40.087Z,81.9
2022-09-15T06:29:50.197Z,82.5
2022-09-15T06:30:59.333Z,81.3
2022-09-15T06:32:09.457Z,82.2
2022-09-15T06:33:19.577Z,80.2
2022-09-15T06:34:29.685Z,80.4
2022-09-15T06:36:49.914Z,79.1
2022-09-15T06:38:00.032Z,77.8
2022-09-15T06:39:10.152Z,77.2
2022-09-15T06:40:20.274Z,77.8
2022-09-15T06:41:30.622Z,76.3
2022-09-15T06:43:50.619Z,76
2022-09-15T06:45:00.755Z,76.2
2022-09-15T06:46:09.886Z,75.2
2022-09-15T06:47:19.989Z,76
2022-09-15T06:48:30.116Z,76
2022-09-15T06:49:40.237Z,75.4
2022-09-15T06:50:50.355Z,76
2022-09-15T06:52:00.474Z,75.5
2022-09-15T06:53:10.582Z,75.5
2022-09-15T06:54:20.706Z,75.6
2022-09-15T06:55:30.811Z,75.1
2022-09-15T06:56:40.947Z,75.7
2022-09-15T06:57:51.048Z,76.2
2022-09-15T06:59:01.182Z,74.7
2022-09-15T07:00:11.290Z,74.6
2022-09-15T07:01:20.416Z,75
2022-09-15T07:02:30.543Z,74.5
2022-09-15T07:03:40.659Z,75.2
2022-09-15T07:04:50.786Z,75.8
2022-09-15T07:06:00.890Z,75.7
2022-09-15T07:07:11.014Z,76.1
2022-09-15T07:08:21.126Z,75.5
2022-09-15T07:09:31.238Z,75.6
2022-09-15T07:10:41.356Z,74.2
2022-09-15T07:11:51.479Z,73.9
2022-09-15T07:13:01.605Z,73.6
2022-09-15T07:14:11.719Z,74.3
2022-09-15T07:15:21.830Z,74.8
2022-09-15T07:16:30.963Z,74.4
2022-09-15T07:17:41.090Z,74.4
2022-09-15T07:18:51.197Z,74.7
2022-09-15T07:20:01.313Z,76.1
2022-09-15T07:21:11.434Z,75.4
2022-09-15T07:22:21.559Z,74
2022-09-15T07:23:31.681Z,74.5
2022-09-15T07:24:41.784Z,73.3
2022-09-15T07:25:51.904Z,75.1
2022-09-15T07:27:02.023Z,73.8
2022-09-15T07:28:12.141Z,73.5
2022-09-15T07:29:22.267Z,73
2022-09-15T07:30:32.369Z,74.3
2022-09-15T07:31:41.507Z,72.2
2022-09-15T07:32:51.631Z,73.1
2022-09-15T07:34:01.754Z,73.5
2022-09-15T07:35:11.866Z,74.3
2022-09-15T07:36:21.978Z,75.8
2022-09-15T07:37:32.096Z,74.3
2022-09-15T07:38:42.221Z,73
2022-09-15T07:39:52.325Z,71.5
2022-09-15T07:41:02.449Z,72.8
2022-09-15T07:42:12.567Z,71.7
2022-09-15T07:43:22.680Z,71.4
2022-09-15T07:44:32.804Z,70.6
2022-09-15T07:46:53.031Z,71.4
2022-09-15T07:48:02.173Z,71.5
2022-09-15T07:49:12.300Z,72.1
2022-09-15T07:50:22.415Z,71.6
2022-09-15T07:51:32.518Z,73.9
2022-09-15T07:52:42.644Z,72.5
2022-09-15T07:53:52.762Z,71.2
2022-09-15T07:55:02.882Z,72.3
2022-09-15T07:56:13.004Z,71.3
2022-09-15T07:57:23.441Z,70.7
2022-09-15T07:58:33.223Z,69.2
2022-09-15T07:59:43.341Z,70.2
2022-09-15T08:00:53.462Z,71.4
2022-09-15T08:02:03.580Z,69.1
2022-09-15T08:03:12.720Z,69.5
2022-09-15T08:04:22.843Z,68.6
2022-09-15T08:05:32.957Z,68.4
2022-09-15T08:06:43.079Z,68.6
2022-09-15T08:07:53.184Z,67.6
2022-09-15T08:09:03.309Z,68.1
2022-09-15T08:10:13.432Z,67.2
2022-09-15T08:11:23.540Z,69
2022-09-15T08:12:33.657Z,68.1
2022-09-15T08:14:53.895Z,68.6
2022-09-15T08:16:04.017Z,68.8
2022-09-15T08:17:14.121Z,67.8
2022-09-15T08:18:23.252Z,67.6
2022-09-15T08:19:33.373Z,67.2
2022-09-15T08:20:43.496Z,66.2
2022-09-15T08:21:53.619Z,65.3
2022-09-15T08:23:03.740Z,66.4
2022-09-15T08:24:13.844Z,66.8
2022-09-15T08:25:23.963Z,66
2022-09-15T08:26:34.088Z,66.2
2022-09-15T08:27:44.197Z,64.4
2022-09-15T08:28:54.313Z,66
2022-09-15T08:30:04.436Z,67.1
2022-09-15T08:31:14.549Z,65.8
2022-09-15T08:32:24.677Z,66.8
2022-09-15T08:33:33.813Z,64.6
2022-09-15T08:34:43.932Z,65.9
2022-09-15T08:35:54.037Z,64.6
2022-09-15T08:37:04.160Z,65.4
2022-09-15T08:38:14.266Z,64.9
2022-09-15T08:39:24.394Z,64
2022-09-15T08:40:34.520Z,67.3
2022-09-15T08:41:44.624Z,64.9
2022-09-15T08:42:54.743Z,64.6
2022-09-15T08:44:04.864Z,62.5
2022-09-15T08:45:14.973Z,63.8
2022-09-15T08:46:25.100Z,62.7
2022-09-15T08:47:35.221Z,64.3
2022-09-15T08:49:54.473Z,64.1
2022-09-15T08:51:04.577Z,62.5
2022-09-15T08:52:14.702Z,64.1
2022-09-15T08:53:24.828Z,63.1
2022-09-15T08:54:34.931Z,61
2022-09-15T08:56:55.181Z,62.1
2022-09-15T08:58:05.299Z,61.8
2022-09-15T08:59:15.407Z,63.8
2022-09-15T09:00:25.519Z,64.1
2022-09-15T09:01:35.639Z,64.2
2022-09-15T09:02:45.758Z,64.8
2022-09-15T09:03:54.893Z,65
2022-09-15T09:05:05.013Z,64.3
2022-09-15T09:06:15.136Z,66.2
2022-09-15T09:07:25.253Z,65
2022-09-15T09:08:35.358Z,63.3
2022-09-15T09:09:45.479Z,63.1
2022-09-15T09:10:55.592Z,63.6
2022-09-15T09:12:05.718Z,62.8
2022-09-15T09:13:15.838Z,63.9
2022-09-15T09:14:25.962Z,62.4
2022-09-15T09:15:36.079Z,64
2022-09-15T09:16:46.201Z,63.1
2022-09-15T09:17:56.312Z,62.4
2022-09-15T09:19:05.432Z,62.7
2022-09-15T09:20:15.560Z,62.4
2022-09-15T09:21:25.677Z,61.6
2022-09-15T09:22:35.799Z,63.3
2022-09-15T09:23:45.905Z,62.2
2022-09-15T09:24:56.027Z,64.3
2022-09-15T09:26:06.138Z,62.5
2022-09-15T09:27:16.256Z,65.5
2022-09-15T09:28:26.376Z,65.1
2022-09-15T09:29:36.494Z,64.2
2022-09-15T09:30:46.624Z,61.6
2022-09-15T09:31:56.746Z,62.6
2022-09-15T09:33:06.863Z,61.5
2022-09-15T09:34:15.995Z,61.4
2022-09-15T09:35:26.102Z,61.1
2022-09-15T09:36:36.443Z,63.2
2022-09-15T09:37:46.333Z,62.4
2022-09-15T09:38:56.460Z,62.9
2022-09-15T09:40:06.570Z,64.4
2022-09-15T09:41:16.696Z,63.1
2022-09-15T09:42:26.822Z,62.9
2022-09-15T09:43:36.925Z,61.9
2022-09-15T09:44:47.054Z,61.6
2022-09-15T09:45:57.156Z,62.1
2022-09-15T09:47:07.291Z,62.5
2022-09-15T09:48:17.405Z,63.1
2022-09-15T09:49:26.528Z,64
2022-09-15T09:50:36.654Z,64
2022-09-15T09:51:46.759Z,63.5
2022-09-15T09:52:56.887Z,62.4
2022-09-15T09:54:07.012Z,61.7
2022-09-15T09:55:17.113Z,62
2022-09-15T09:56:27.232Z,62.8
2022-09-15T09:57:37.360Z,62.2
2022-09-15T09:58:47.479Z,61.8
2022-09-15T09:59:57.583Z,61.4
2022-09-15T10:01:07.706Z,60.5
2022-09-15T10:02:17.831Z,61.3
2022-09-15T10:03:27.949Z,60.5
2022-09-15T10:04:37.074Z,61.8
2022-09-15T10:05:47.000Z,63.2
2022-09-15T10:06:57.320Z,61
2022-09-15T10:08:07.427Z,59.9
2022-09-15T10:09:17.554Z,59.2
2022-09-15T10:10:27.656Z,61.4
2022-09-15T10:11:37.781Z,59.6
2022-09-15T10:12:47.906Z,59.8
2022-09-15T10:13:58.029Z,58.7
2022-09-15T10:15:08.131Z,59.1
2022-09-15T10:16:18.255Z,59.3
2022-09-15T10:17:28.367Z,59
2022-09-15T10:18:38.493Z,60.2
2022-09-15T10:20:57.736Z,61.6
2022-09-15T10:22:07.859Z,60.8
2022-09-15T10:23:17.973Z,58.8
2022-09-15T10:24:28.098Z,60.5
2022-09-15T10:25:37.227Z,61.8
2022-09-15T10:26:47.354Z,61.1
2022-09-15T10:27:57.477Z,62.5
2022-09-15T10:29:07.582Z,61.1
2022-09-15T10:30:17.705Z,62.7
2022-09-15T10:31:27.815Z,62.9
2022-09-15T10:32:37.934Z,64.4
2022-09-15T10:33:48.058Z,63.1
2022-09-15T10:34:58.180Z,63.4
2022-09-15T10:36:08.304Z,60.5
2022-09-15T10:37:18.419Z,60.9
2022-09-15T10:38:28.747Z,61.1
2022-09-15T10:39:38.645Z,62
2022-09-15T10:40:47.775Z,59.5
2022-09-15T10:41:57.894Z,56.3
2022-09-15T10:43:08.026Z,57.9
2022-09-15T10:44:18.134Z,57.1
2022-09-15T10:45:28.256Z,59.2
2022-09-15T10:46:38.367Z,56.4
2022-09-15T10:47:48.484Z,58.6
2022-09-15T10:48:58.611Z,62.1
2022-09-15T10:50:08.735Z,59.1
2022-09-15T10:51:18.833Z,56.7
2022-09-15T10:52:28.960Z,56
2022-09-15T10:53:39.084Z,55.6
2022-09-15T10:54:49.193Z,55.5
2022-09-15T10:55:58.321Z,55.9
2022-09-15T10:57:08.443Z,56
2022-09-15T10:58:18.569Z,56.2
2022-09-15T10:59:28.691Z,56.1
2022-09-15T11:00:38.803Z,55.3
2022-09-15T11:02:59.043Z,55.6
2022-09-15T11:04:09.164Z,56.2
2022-09-15T11:05:19.277Z,58.1
2022-09-15T11:06:29.381Z,56.6
2022-09-15T11:07:39.500Z,57.9
2022-09-15T11:09:59.741Z,58
2022-09-15T11:11:08.876Z,57.9
2022-09-15T11:12:19.000Z,58
2022-09-15T11:13:29.109Z,58.8
2022-09-15T11:14:39.233Z,59.2
2022-09-15T11:15:49.355Z,59.2
2022-09-15T11:16:59.681Z,59.1
2022-09-15T11:18:09.578Z,61
2022-09-15T11:19:19.705Z,61
2022-09-15T11:20:29.825Z,59.7
2022-09-15T11:21:39.931Z,61.9
2022-09-15T11:22:50.053Z,61.3
2022-09-15T11:24:00.184Z,61.7
2022-09-15T11:25:10.299Z,60.8
2022-09-15T11:26:19.437Z,60.8
2022-09-15T11:27:29.546Z,62.7
2022-09-15T11:28:39.663Z,62.4
2022-09-15T11:29:49.000Z,62.2
2022-09-15T11:30:59.889Z,61.2
2022-09-15T11:32:10.018Z,61
2022-09-15T11:33:20.139Z,61
2022-09-15T11:34:30.253Z,60.2
2022-09-15T11:35:40.360Z,60.5
2022-09-15T11:36:50.486Z,61.1
2022-09-15T11:38:00.603Z,58.9
2022-09-15T11:39:10.730Z,56.9
2022-09-15T11:40:20.848Z,57.2
2022-09-15T11:41:29.978Z,58.6
2022-09-15T11:42:40.083Z,58.3
2022-09-15T11:43:50.211Z,55.7
2022-09-15T11:45:00.319Z,58.3
2022-09-15T11:46:10.454Z,55.5
2022-09-15T11:47:20.555Z,53.2
2022-09-15T11:48:30.681Z,53.8
2022-09-15T11:49:40.804Z,52.9
2022-09-15T11:50:50.909Z,54.5
2022-09-15T11:52:01.034Z,53.4
2022-09-15T11:53:11.159Z,52
2022-09-15T11:54:21.267Z,53.4
2022-09-15T11:55:31.395Z,53.9
2022-09-15T11:56:40.523Z,55.1
2022-09-15T11:57:50.650Z,52.4
2022-09-15T11:59:00.751Z,53.8
2022-09-15T12:00:10.878Z,52.5
2022-09-15T12:01:21.211Z,54.3
2022-09-15T12:02:31.326Z,55.5
2022-09-15T12:03:41.226Z,53.2
2022-09-15T12:04:51.356Z,52.7
2022-09-15T12:06:01.461Z,53.4
2022-09-15T12:07:11.591Z,54.5
2022-09-15T12:08:21.711Z,52.9
2022-09-15T12:09:31.810Z,50.8
2022-09-15T12:10:41.936Z,53.3
2022-09-15T12:13:01.196Z,54.4
2022-09-15T12:14:11.299Z,56.1
2022-09-15T12:15:21.424Z,58.3
2022-09-15T12:16:31.533Z,57
2022-09-15T12:17:41.661Z,55.5
2022-09-15T12:18:51.787Z,55.1
2022-09-15T12:20:01.890Z,55.2
2022-09-15T12:21:12.015Z,55.8
2022-09-15T12:22:22.123Z,57.5
2022-09-15T12:23:32.247Z,56.5
2022-09-15T12:24:42.371Z,56.2
2022-09-15T12:25:52.494Z,54.4
2022-09-15T12:27:01.611Z,54.8
2022-09-15T12:28:11.744Z,53.6
2022-09-15T12:29:21.848Z,53.4
2022-09-15T12:30:31.978Z,53.1
2022-09-15T12:31:42.307Z,52.5
2022-09-15T12:32:52.203Z,52.3
2022-09-15T12:34:02.328Z,54.3
2022-09-15T12:35:12.438Z,56.1
2022-09-15T12:36:22.563Z,55.6
2022-09-15T12:37:32.687Z,55.4
2022-09-15T12:38:42.804Z,56.5
2022-09-15T12:39:52.910Z,56
2022-09-15T12:41:03.035Z,55.6
2022-09-15T12:42:12.175Z,57
2022-09-15T12:43:22.292Z,56.1
2022-09-15T12:44:32.400Z,56.4
2022-09-15T12:45:42.525Z,56.4
2022-09-15T12:46:52.636Z,57.6
2022-09-15T12:48:02.757Z,58.5
2022-09-15T12:49:12.877Z,57.4
2022-09-15T12:50:23.000Z,58
2022-09-15T12:51:33.110Z,60.2
2022-09-15T12:52:43.232Z,58
2022-09-15T12:53:53.339Z,58.2
2022-09-15T12:55:03.466Z,60.9
2022-09-15T12:56:13.589Z,60.5
2022-09-15T12:57:22.721Z,59.5
2022-09-15T12:58:32.825Z,61.4
2022-09-15T12:59:42.949Z,66
2022-09-15T13:00:53.079Z,68.9
2022-09-15T13:02:03.187Z,73.7
2022-09-15T13:03:13.294Z,75.9
2022-09-15T13:04:23.419Z,81.4
2022-09-15T13:05:33.545Z,88.2
2022-09-15T13:06:43.666Z,89
2022-09-15T13:09:03.902Z,92.1
2022-09-15T13:10:14.004Z,91.9
2022-09-15T13:11:24.131Z,91.7
2022-09-15T13:12:33.266Z,93.5
2022-09-15T13:13:43.368Z,92.4
2022-09-15T13:14:53.489Z,92.9
2022-09-15T13:16:03.621Z,93.3
2022-09-15T13:17:13.733Z,94.5
2022-09-15T13:18:23.857Z,94.7
2022-09-15T13:19:33.965Z,93.3
2022-09-15T13:20:44.087Z,93.1
2022-09-15T13:21:54.207Z,93.1
2022-09-15T13:23:04.310Z,93.3
2022-09-15T13:24:14.436Z,92.6
2022-09-15T13:26:34.661Z,91.3
2022-09-15T13:27:44.013Z,91.8
2022-09-15T13:28:53.928Z,92.1
2022-09-15T13:30:04.042Z,91
2022-09-15T13:31:14.167Z,91.9
2022-09-15T13:32:24.268Z,91.3
2022-09-15T13:33:34.395Z,89.6
2022-09-15T13:34:44.510Z,90.1
2022-09-15T13:37:04.735Z,88.1
2022-09-15T13:38:14.000Z,87.1
2022-09-15T13:39:25.198Z,87
2022-09-15T13:40:35.094Z,85.9
2022-09-15T13:41:45.219Z,85.1
2022-09-15T13:42:54.355Z,85.2
2022-09-15T13:44:04.459Z,82.8
2022-09-15T13:45:14.584Z,83.5
2022-09-15T13:46:24.691Z,84.9
2022-09-15T13:47:34.818Z,88.1
2022-09-15T13:48:44.941Z,86
2022-09-15T13:51:05.164Z,81.6
2022-09-15T13:52:15.287Z,82.2
2022-09-15T13:53:25.405Z,81.4
2022-09-15T13:55:45.632Z,82.6
2022-09-15T13:58:04.894Z,83.5
2022-09-15T13:59:14.052Z,84.3
2022-09-15T14:00:23.171Z,83.6
2022-09-15T14:01:33.293Z,85.2
2022-09-15T14:02:43.417Z,84.3
2022-09-15T14:03:53.542Z,82.6
2022-09-15T14:05:03.658Z,82.7
2022-09-15T14:06:13.768Z,85.1
2022-09-15T14:07:24.098Z,83.5
2022-09-15T14:08:34.011Z,81.3
2022-09-15T14:09:44.333Z,83.4
2022-09-15T14:12:04.363Z,79.9
2022-09-15T14:13:14.478Z,78.4
2022-09-15T14:14:24.806Z,77.9
2022-09-15T14:15:33.735Z,76.5
2022-09-15T14:16:43.837Z,78.8
2022-09-15T14:19:04.084Z,77.9
2022-09-15T14:21:23.339Z,77.3
2022-09-15T14:22:32.491Z,75.9
2022-09-15T14:23:41.621Z,75.7
2022-09-15T14:24:51.753Z,77.2
2022-09-15T14:26:01.866Z,77.3
2022-09-15T14:27:11.982Z,73.7
2022-09-15T14:28:22.102Z,72.1
2022-09-15T14:29:32.215Z,71.2
2022-09-15T14:30:42.333Z,74.3
2022-09-15T14:31:52.442Z,71.4
2022-09-15T14:33:02.559Z,73.3
2022-09-15T14:34:12.693Z,74.1
2022-09-15T14:36:31.937Z,71.5
2022-09-15T14:37:41.084Z,70.1
2022-09-15T14:38:51.204Z,69.9
2022-09-15T14:40:01.307Z,67.2
2022-09-15T14:41:11.428Z,64.1
2022-09-15T14:42:21.547Z,59.9
2022-09-15T14:43:31.671Z,63.7
2022-09-15T14:44:41.777Z,66
2022-09-15T14:45:51.898Z,69.5
2022-09-15T14:47:02.023Z,70.5
2022-09-15T14:48:11.159Z,70.1
2022-09-15T14:49:20.306Z,72.2
2022-09-15T14:50:30.415Z,71.7
2022-09-15T14:51:40.531Z,67.6
2022-09-15T14:52:50.646Z,68.5
2022-09-15T14:54:00.767Z,68.5
2022-09-15T14:55:10.885Z,70.3
2022-09-15T14:56:21.003Z,70.5
2022-09-15T14:57:31.127Z,71.9
2022-09-15T14:58:41.246Z,72.7
2022-09-15T14:59:51.349Z,74.8
2022-09-15T15:01:00.490Z,74.6
2022-09-15T15:02:09.851Z,73.5
2022-09-15T15:03:19.747Z,74.5
2022-09-15T15:04:29.870Z,75
2022-09-15T15:05:39.977Z,73.5
2022-09-15T15:06:50.099Z,75.7
2022-09-15T15:08:00.223Z,73.7
2022-09-15T15:09:10.334Z,75.9
2022-09-15T15:10:20.453Z,78.3
2022-09-15T15:11:30.567Z,77.8
2022-09-15T15:12:40.692Z,76
2022-09-15T15:15:00.925Z,75.2
2022-09-15T15:16:11.051Z,69.5
2022-09-15T15:17:20.167Z,65.9
2022-09-15T15:18:30.291Z,61.4
2022-09-15T15:19:40.406Z,60.2
2022-09-15T15:20:50.535Z,58.8
2022-09-15T15:22:00.646Z,56.8
2022-09-15T15:23:10.772Z,56.1
2022-09-15T15:24:20.873Z,56.8
2022-09-15T15:25:31.204Z,57.7
2022-09-15T15:26:41.111Z,57.9
2022-09-15T15:27:51.243Z,56.6
2022-09-15T15:29:01.350Z,55.7
2022-09-15T15:30:11.469Z,55.3
2022-09-15T15:31:21.592Z,54.9
2022-09-15T15:32:30.727Z,55.1
2022-09-15T15:33:40.831Z,54.5
2022-09-15T15:34:50.951Z,53.2
2022-09-15T15:36:01.281Z,53.5
2022-09-15T15:37:11.182Z,55.5
2022-09-15T15:38:21.306Z,55.5
2022-09-15T15:39:31.431Z,56.4
2022-09-15T15:40:41.547Z,55.9
2022-09-15T15:41:51.667Z,53.7
2022-09-15T15:43:01.991Z,54.3
2022-09-15T15:44:11.898Z,53.4
2022-09-15T15:45:22.018Z,53
2022-09-15T15:46:32.125Z,55.5
2022-09-15T15:47:41.259Z,54.5
2022-09-15T15:50:01.510Z,56.9
2022-09-15T15:51:11.386Z,57.7
2022-09-15T15:52:21.736Z,61.1
2022-09-15T15:53:31.857Z,64.4
2022-09-15T15:54:41.977Z,65.9
2022-09-15T15:55:52.296Z,66.9
2022-09-15T15:57:02.212Z,67.3
2022-09-15T15:58:12.087Z,70
2022-09-15T15:59:22.437Z,69.5
2022-09-15T16:00:32.563Z,68.1
2022-09-15T16:01:42.689Z,68.1
2022-09-15T16:02:51.823Z,67.2
2022-09-15T16:04:01.926Z,62.3
2022-09-15T16:05:11.814Z,58.8
2022-09-15T16:06:22.176Z,57.8
2022-09-15T16:07:32.281Z,57
2022-09-15T16:08:42.399Z,54.9
2022-09-15T16:09:52.522Z,58.5
2022-09-15T16:11:02.646Z,59.8
2022-09-15T16:12:12.763Z,61.8
2022-09-15T16:13:22.870Z,62.4
2022-09-15T16:14:32.990Z,63
2022-09-15T16:15:43.104Z,63.1
2022-09-15T16:16:53.229Z,64